sensor_id;sensor_type;location;lat;lon;timestamp;P1;durP1;ratioP1;P2;durP2;ratioP2
13051;SDS011;6592;47.484;9.726;2023-11-19T00:01:34;2.13;;;0.80;;
13051;SDS011;6592;47.484;9.726;2023-11-19T00:04:03;2.80;;;0.90;;
13051;SDS011;6592;47.484;9.726;2023-11-19T00:06:32;2.97;;;1.15;;
13051;SDS011;6592;47.484;9.726;2023-11-19T00:09:00;4.50;;;1.00;;
13051;SDS011;6592;47.484;9.726;2023-11-19T00:11:30;2.72;;;1.00;;
13051;SDS011;6592;47.484;9.726;2023-11-19T00:13:59;2.40;;;1.10;;
13051;SDS011;6592;47.484;9.726;2023-11-19T00:16:28;3.45;;;1.00;;
13051;SDS011;6592;47.484;9.726;2023-11-19T00:18:58;2.25;;;0.85;;
13051;SDS011;6592;47.484;9.726;2023-11-19T00:21:26;2.05;;;0.80;;
13051;SDS011;6592;47.484;9.726;2023-11-19T00:23:55;1.48;;;0.70;;
13051;SDS011;6592;47.484;9.726;2023-11-19T00:26:25;1.90;;;0.60;;
13051;SDS011;6592;47.484;9.726;2023-11-19T00:28:53;0.90;;;0.47;;
13051;SDS011;6592;47.484;9.726;2023-11-19T00:31:23;2.45;;;0.80;;
13051;SDS011;6592;47.484;9.726;2023-11-19T00:33:52;1.38;;;0.70;;
13051;SDS011;6592;47.484;9.726;2023-11-19T00:36:21;1.40;;;0.60;;
13051;SDS011;6592;47.484;9.726;2023-11-19T00:38:50;1.55;;;0.65;;
13051;SDS011;6592;47.484;9.726;2023-11-19T00:41:19;1.35;;;0.60;;
13051;SDS011;6592;47.484;9.726;2023-11-19T00:43:47;2.47;;;0.88;;
13051;SDS011;6592;47.484;9.726;2023-11-19T00:46:16;4.82;;;0.98;;
13051;SDS011;6592;47.484;9.726;2023-11-19T00:48:45;2.47;;;0.70;;
13051;SDS011;6592;47.484;9.726;2023-11-19T00:51:14;1.80;;;0.60;;
13051;SDS011;6592;47.484;9.726;2023-11-19T00:53:42;2.42;;;0.70;;
13051;SDS011;6592;47.484;9.726;2023-11-19T00:56:10;4.70;;;0.88;;
13051;SDS011;6592;47.484;9.726;2023-11-19T00:58:39;1.70;;;0.70;;
13051;SDS011;6592;47.484;9.726;2023-11-19T01:01:08;1.80;;;0.60;;
13051;SDS011;6592;47.484;9.726;2023-11-19T01:03:36;1.52;;;0.70;;
13051;SDS011;6592;47.484;9.726;2023-11-19T01:06:07;1.25;;;0.60;;
13051;SDS011;6592;47.484;9.726;2023-11-19T01:08:35;1.80;;;0.60;;
13051;SDS011;6592;47.484;9.726;2023-11-19T01:11:04;2.03;;;0.82;;
13051;SDS011;6592;47.484;9.726;2023-11-19T01:13:32;1.15;;;0.50;;
13051;SDS011;6592;47.484;9.726;2023-11-19T01:16:00;1.65;;;0.60;;
13051;SDS011;6592;47.484;9.726;2023-11-19T01:18:29;1.92;;;0.80;;
13051;SDS011;6592;47.484;9.726;2023-11-19T01:20:57;1.27;;;0.60;;
13051;SDS011;6592;47.484;9.726;2023-11-19T01:23:27;2.33;;;0.65;;
13051;SDS011;6592;47.484;9.726;2023-11-19T01:25:55;7.30;;;0.80;;
13051;SDS011;6592;47.484;9.726;2023-11-19T01:28:23;2.28;;;0.93;;
13051;SDS011;6592;47.484;9.726;2023-11-19T01:30:52;2.30;;;0.82;;
13051;SDS011;6592;47.484;9.726;2023-11-19T01:33:20;1.63;;;0.80;;
13051;SDS011;6592;47.484;9.726;2023-11-19T01:35:49;2.88;;;0.90;;
13051;SDS011;6592;47.484;9.726;2023-11-19T01:38:17;2.42;;;0.93;;
13051;SDS011;6592;47.484;9.726;2023-11-19T01:40:47;2.28;;;1.00;;
13051;SDS011;6592;47.484;9.726;2023-11-19T01:43:30;2.20;;;0.80;;
13051;SDS011;6592;47.484;9.726;2023-11-19T01:45:59;2.00;;;0.60;;
13051;SDS011;6592;47.484;9.726;2023-11-19T01:48:28;1.77;;;0.75;;
13051;SDS011;6592;47.484;9.726;2023-11-19T01:50:56;2.05;;;0.90;;
13051;SDS011;6592;47.484;9.726;2023-11-19T01:53:29;2.63;;;0.80;;
13051;SDS011;6592;47.484;9.726;2023-11-19T01:55:59;3.88;;;0.90;;
13051;SDS011;6592;47.484;9.726;2023-11-19T01:58:28;1.75;;;0.77;;
13051;SDS011;6592;47.484;9.726;2023-11-19T02:00:57;1.65;;;0.77;;
13051;SDS011;6592;47.484;9.726;2023-11-19T02:03:26;1.33;;;0.60;;
13051;SDS011;6592;47.484;9.726;2023-11-19T02:05:56;1.92;;;0.68;;
13051;SDS011;6592;47.484;9.726;2023-11-19T02:08:24;0.60;;;0.20;;
13051;SDS011;6592;47.484;9.726;2023-11-19T02:10:52;1.92;;;0.60;;
13051;SDS011;6592;47.484;9.726;2023-11-19T02:13:24;1.30;;;0.50;;
13051;SDS011;6592;47.484;9.726;2023-11-19T02:15:53;1.63;;;0.40;;
13051;SDS011;6592;47.484;9.726;2023-11-19T02:18:23;1.75;;;0.60;;
13051;SDS011;6592;47.484;9.726;2023-11-19T02:20:54;1.13;;;0.60;;
13051;SDS011;6592;47.484;9.726;2023-11-19T02:23:23;3.13;;;0.57;;
13051;SDS011;6592;47.484;9.726;2023-11-19T02:25:58;3.38;;;0.55;;
13051;SDS011;6592;47.484;9.726;2023-11-19T02:28:33;1.42;;;0.40;;
13051;SDS011;6592;47.484;9.726;2023-11-19T02:33:36;1.35;;;0.40;;
13051;SDS011;6592;47.484;9.726;2023-11-19T02:36:04;1.42;;;0.50;;
13051;SDS011;6592;47.484;9.726;2023-11-19T02:38:34;2.50;;;0.40;;
13051;SDS011;6592;47.484;9.726;2023-11-19T02:41:03;1.40;;;0.40;;
13051;SDS011;6592;47.484;9.726;2023-11-19T02:43:34;1.42;;;0.57;;
13051;SDS011;6592;47.484;9.726;2023-11-19T02:46:03;1.02;;;0.55;;
13051;SDS011;6592;47.484;9.726;2023-11-19T02:48:36;0.93;;;0.43;;
13051;SDS011;6592;47.484;9.726;2023-11-19T02:51:05;1.15;;;0.40;;
13051;SDS011;6592;47.484;9.726;2023-11-19T02:53:36;1.13;;;0.50;;
13051;SDS011;6592;47.484;9.726;2023-11-19T02:56:07;2.25;;;0.70;;
13051;SDS011;6592;47.484;9.726;2023-11-19T02:58:47;0.73;;;0.30;;
13051;SDS011;6592;47.484;9.726;2023-11-19T03:01:21;1.45;;;0.60;;
13051;SDS011;6592;47.484;9.726;2023-11-19T03:03:57;2.58;;;0.70;;
13051;SDS011;6592;47.484;9.726;2023-11-19T03:06:27;1.05;;;0.60;;
13051;SDS011;6592;47.484;9.726;2023-11-19T03:08:55;0.90;;;0.50;;
13051;SDS011;6592;47.484;9.726;2023-11-19T03:11:24;2.42;;;0.60;;
13051;SDS011;6592;47.484;9.726;2023-11-19T03:13:53;0.80;;;0.40;;
13051;SDS011;6592;47.484;9.726;2023-11-19T03:16:22;1.52;;;0.50;;
13051;SDS011;6592;47.484;9.726;2023-11-19T03:18:50;1.42;;;0.43;;
13051;SDS011;6592;47.484;9.726;2023-11-19T03:21:19;1.40;;;0.60;;
13051;SDS011;6592;47.484;9.726;2023-11-19T03:23:47;1.50;;;0.57;;
13051;SDS011;6592;47.484;9.726;2023-11-19T03:26:15;0.98;;;0.45;;
13051;SDS011;6592;47.484;9.726;2023-11-19T03:28:44;2.80;;;0.70;;
13051;SDS011;6592;47.484;9.726;2023-11-19T03:31:15;2.03;;;0.73;;
13051;SDS011;6592;47.484;9.726;2023-11-19T03:33:43;3.83;;;0.90;;
13051;SDS011;6592;47.484;9.726;2023-11-19T03:36:11;1.85;;;0.70;;
13051;SDS011;6592;47.484;9.726;2023-11-19T03:38:40;2.10;;;0.60;;
13051;SDS011;6592;47.484;9.726;2023-11-19T03:41:12;1.58;;;0.60;;
13051;SDS011;6592;47.484;9.726;2023-11-19T03:43:40;1.63;;;0.50;;
13051;SDS011;6592;47.484;9.726;2023-11-19T03:46:19;1.65;;;0.65;;
13051;SDS011;6592;47.484;9.726;2023-11-19T03:48:48;1.50;;;0.60;;
13051;SDS011;6592;47.484;9.726;2023-11-19T03:51:17;2.60;;;0.63;;
13051;SDS011;6592;47.484;9.726;2023-11-19T03:53:45;1.73;;;0.50;;
13051;SDS011;6592;47.484;9.726;2023-11-19T03:56:14;3.83;;;0.63;;
13051;SDS011;6592;47.484;9.726;2023-11-19T03:58:43;1.67;;;0.50;;
13051;SDS011;6592;47.484;9.726;2023-11-19T04:01:11;1.33;;;0.50;;
13051;SDS011;6592;47.484;9.726;2023-11-19T04:03:42;1.13;;;0.40;;
13051;SDS011;6592;47.484;9.726;2023-11-19T04:06:13;1.42;;;0.50;;
13051;SDS011;6592;47.484;9.726;2023-11-19T04:08:41;1.27;;;0.57;;
13051;SDS011;6592;47.484;9.726;2023-11-19T04:11:10;1.52;;;0.70;;
13051;SDS011;6592;47.484;9.726;2023-11-19T04:13:39;1.00;;;0.40;;
13051;SDS011;6592;47.484;9.726;2023-11-19T04:16:08;1.38;;;0.40;;
13051;SDS011;6592;47.484;9.726;2023-11-19T04:18:36;1.80;;;0.60;;
13051;SDS011;6592;47.484;9.726;2023-11-19T04:21:07;1.80;;;0.60;;
13051;SDS011;6592;47.484;9.726;2023-11-19T04:23:35;2.88;;;0.57;;
13051;SDS011;6592;47.484;9.726;2023-11-19T04:26:04;2.60;;;0.60;;
13051;SDS011;6592;47.484;9.726;2023-11-19T04:28:36;2.25;;;0.90;;
13051;SDS011;6592;47.484;9.726;2023-11-19T04:31:04;2.55;;;0.90;;
13051;SDS011;6592;47.484;9.726;2023-11-19T04:33:32;1.85;;;0.70;;
13051;SDS011;6592;47.484;9.726;2023-11-19T04:36:01;2.13;;;0.70;;
13051;SDS011;6592;47.484;9.726;2023-11-19T04:38:31;1.50;;;0.60;;
13051;SDS011;6592;47.484;9.726;2023-11-19T04:40:59;1.90;;;0.70;;
13051;SDS011;6592;47.484;9.726;2023-11-19T04:43:28;1.40;;;0.57;;
13051;SDS011;6592;47.484;9.726;2023-11-19T04:45:57;1.73;;;0.57;;
13051;SDS011;6592;47.484;9.726;2023-11-19T04:48:26;1.88;;;0.60;;
13051;SDS011;6592;47.484;9.726;2023-11-19T04:51:07;1.63;;;0.80;;
13051;SDS011;6592;47.484;9.726;2023-11-19T04:53:38;1.40;;;0.50;;
13051;SDS011;6592;47.484;9.726;2023-11-19T04:56:10;1.25;;;0.57;;
13051;SDS011;6592;47.484;9.726;2023-11-19T04:58:39;1.20;;;0.47;;
13051;SDS011;6592;47.484;9.726;2023-11-19T05:01:12;2.33;;;0.70;;
13051;SDS011;6592;47.484;9.726;2023-11-19T05:03:43;3.55;;;0.93;;
13051;SDS011;6592;47.484;9.726;2023-11-19T05:06:12;2.08;;;0.80;;
13051;SDS011;6592;47.484;9.726;2023-11-19T05:08:43;1.65;;;0.60;;
13051;SDS011;6592;47.484;9.726;2023-11-19T05:11:12;1.77;;;0.70;;
13051;SDS011;6592;47.484;9.726;2023-11-19T05:13:44;1.80;;;0.80;;
13051;SDS011;6592;47.484;9.726;2023-11-19T05:16:12;1.40;;;0.60;;
13051;SDS011;6592;47.484;9.726;2023-11-19T05:18:41;2.20;;;0.80;;
13051;SDS011;6592;47.484;9.726;2023-11-19T05:21:10;2.70;;;0.60;;
13051;SDS011;6592;47.484;9.726;2023-11-19T05:23:38;1.10;;;0.57;;
13051;SDS011;6592;47.484;9.726;2023-11-19T05:26:09;1.52;;;0.65;;
13051;SDS011;6592;47.484;9.726;2023-11-19T05:28:44;1.67;;;0.80;;
13051;SDS011;6592;47.484;9.726;2023-11-19T05:31:12;3.03;;;0.90;;
13051;SDS011;6592;47.484;9.726;2023-11-19T05:33:41;2.17;;;0.82;;
13051;SDS011;6592;47.484;9.726;2023-11-19T05:36:10;2.28;;;0.70;;
13051;SDS011;6592;47.484;9.726;2023-11-19T05:38:40;1.92;;;0.77;;
13051;SDS011;6592;47.484;9.726;2023-11-19T05:41:10;1.40;;;0.77;;
13051;SDS011;6592;47.484;9.726;2023-11-19T05:43:38;3.78;;;1.30;;
13051;SDS011;6592;47.484;9.726;2023-11-19T05:46:07;4.80;;;1.90;;
13051;SDS011;6592;47.484;9.726;2023-11-19T05:48:38;3.08;;;1.20;;
13051;SDS011;6592;47.484;9.726;2023-11-19T05:51:07;4.07;;;1.20;;
13051;SDS011;6592;47.484;9.726;2023-11-19T05:53:35;3.85;;;1.30;;
13051;SDS011;6592;47.484;9.726;2023-11-19T05:56:04;2.42;;;1.10;;
13051;SDS011;6592;47.484;9.726;2023-11-19T05:58:37;3.03;;;1.27;;
13051;SDS011;6592;47.484;9.726;2023-11-19T06:01:06;2.65;;;1.45;;
13051;SDS011;6592;47.484;9.726;2023-11-19T06:03:35;2.38;;;1.08;;
13051;SDS011;6592;47.484;9.726;2023-11-19T06:06:05;2.35;;;1.10;;
13051;SDS011;6592;47.484;9.726;2023-11-19T06:08:33;3.30;;;1.00;;
13051;SDS011;6592;47.484;9.726;2023-11-19T06:11:02;3.10;;;1.50;;
13051;SDS011;6592;47.484;9.726;2023-11-19T06:13:30;3.13;;;1.80;;
13051;SDS011;6592;47.484;9.726;2023-11-19T06:16:00;3.92;;;1.50;;
13051;SDS011;6592;47.484;9.726;2023-11-19T06:18:29;2.33;;;1.23;;
13051;SDS011;6592;47.484;9.726;2023-11-19T06:20:58;2.75;;;1.15;;
13051;SDS011;6592;47.484;9.726;2023-11-19T06:23:26;2.47;;;1.30;;
13051;SDS011;6592;47.484;9.726;2023-11-19T06:25:54;2.45;;;1.25;;
13051;SDS011;6592;47.484;9.726;2023-11-19T06:28:23;2.67;;;1.13;;
13051;SDS011;6592;47.484;9.726;2023-11-19T06:30:51;2.08;;;1.17;;
13051;SDS011;6592;47.484;9.726;2023-11-19T06:33:21;2.38;;;1.30;;
13051;SDS011;6592;47.484;9.726;2023-11-19T06:35:49;2.55;;;1.25;;
13051;SDS011;6592;47.484;9.726;2023-11-19T06:38:18;3.38;;;1.30;;
13051;SDS011;6592;47.484;9.726;2023-11-19T06:40:47;3.03;;;1.20;;
13051;SDS011;6592;47.484;9.726;2023-11-19T06:43:20;3.28;;;1.35;;
13051;SDS011;6592;47.484;9.726;2023-11-19T06:45:48;3.13;;;1.65;;
13051;SDS011;6592;47.484;9.726;2023-11-19T06:48:16;2.70;;;1.30;;
13051;SDS011;6592;47.484;9.726;2023-11-19T06:50:46;3.17;;;1.60;;
13051;SDS011;6592;47.484;9.726;2023-11-19T06:53:14;3.60;;;1.83;;
13051;SDS011;6592;47.484;9.726;2023-11-19T06:55:43;3.92;;;1.40;;
13051;SDS011;6592;47.484;9.726;2023-11-19T06:58:12;3.83;;;1.60;;
13051;SDS011;6592;47.484;9.726;2023-11-19T07:00:40;3.03;;;1.55;;
13051;SDS011;6592;47.484;9.726;2023-11-19T07:03:08;2.85;;;1.42;;
13051;SDS011;6592;47.484;9.726;2023-11-19T07:05:36;4.13;;;1.60;;
13051;SDS011;6592;47.484;9.726;2023-11-19T07:08:07;4.03;;;1.80;;
13051;SDS011;6592;47.484;9.726;2023-11-19T07:10:35;3.45;;;1.70;;
13051;SDS011;6592;47.484;9.726;2023-11-19T07:13:04;4.45;;;1.70;;
13051;SDS011;6592;47.484;9.726;2023-11-19T07:15:32;4.78;;;1.85;;
13051;SDS011;6592;47.484;9.726;2023-11-19T07:18:01;4.53;;;1.40;;
13051;SDS011;6592;47.484;9.726;2023-11-19T07:20:30;3.00;;;1.67;;
13051;SDS011;6592;47.484;9.726;2023-11-19T07:22:59;3.35;;;1.40;;
13051;SDS011;6592;47.484;9.726;2023-11-19T07:25:29;3.78;;;1.80;;
13051;SDS011;6592;47.484;9.726;2023-11-19T07:27:57;3.20;;;1.50;;
13051;SDS011;6592;47.484;9.726;2023-11-19T07:30:25;3.58;;;1.80;;
13051;SDS011;6592;47.484;9.726;2023-11-19T07:32:53;3.83;;;1.60;;
13051;SDS011;6592;47.484;9.726;2023-11-19T07:35:22;3.65;;;1.60;;
13051;SDS011;6592;47.484;9.726;2023-11-19T07:37:50;6.25;;;1.90;;
13051;SDS011;6592;47.484;9.726;2023-11-19T07:40:19;4.38;;;1.60;;
13051;SDS011;6592;47.484;9.726;2023-11-19T07:42:48;5.05;;;2.60;;
13051;SDS011;6592;47.484;9.726;2023-11-19T07:45:17;4.32;;;2.13;;
13051;SDS011;6592;47.484;9.726;2023-11-19T07:47:45;4.95;;;3.50;;
13051;SDS011;6592;47.484;9.726;2023-11-19T07:50:14;5.07;;;2.42;;
13051;SDS011;6592;47.484;9.726;2023-11-19T07:52:43;4.03;;;1.42;;
13051;SDS011;6592;47.484;9.726;2023-11-19T07:55:11;3.40;;;1.60;;
13051;SDS011;6592;47.484;9.726;2023-11-19T07:57:40;3.35;;;1.60;;
13051;SDS011;6592;47.484;9.726;2023-11-19T08:00:10;4.30;;;2.03;;
13051;SDS011;6592;47.484;9.726;2023-11-19T08:02:39;4.95;;;2.38;;
13051;SDS011;6592;47.484;9.726;2023-11-19T08:05:08;4.10;;;2.10;;
13051;SDS011;6592;47.484;9.726;2023-11-19T08:07:37;3.78;;;1.77;;
13051;SDS011;6592;47.484;9.726;2023-11-19T08:10:05;5.70;;;2.20;;
13051;SDS011;6592;47.484;9.726;2023-11-19T08:12:36;6.15;;;2.05;;
13051;SDS011;6592;47.484;9.726;2023-11-19T08:15:05;4.38;;;2.17;;
13051;SDS011;6592;47.484;9.726;2023-11-19T08:17:35;5.18;;;2.50;;
13051;SDS011;6592;47.484;9.726;2023-11-19T08:20:04;4.40;;;2.00;;
13051;SDS011;6592;47.484;9.726;2023-11-19T08:22:37;3.92;;;2.25;;
13051;SDS011;6592;47.484;9.726;2023-11-19T08:25:06;4.78;;;2.15;;
13051;SDS011;6592;47.484;9.726;2023-11-19T08:27:35;4.50;;;2.10;;
13051;SDS011;6592;47.484;9.726;2023-11-19T08:30:03;4.85;;;2.45;;
13051;SDS011;6592;47.484;9.726;2023-11-19T08:32:33;3.40;;;1.85;;
13051;SDS011;6592;47.484;9.726;2023-11-19T08:35:04;4.68;;;2.25;;
13051;SDS011;6592;47.484;9.726;2023-11-19T08:37:33;3.72;;;1.88;;
13051;SDS011;6592;47.484;9.726;2023-11-19T08:40:04;5.28;;;2.20;;
13051;SDS011;6592;47.484;9.726;2023-11-19T08:42:33;4.82;;;2.70;;
13051;SDS011;6592;47.484;9.726;2023-11-19T08:45:03;5.75;;;2.92;;
13051;SDS011;6592;47.484;9.726;2023-11-19T08:47:31;4.03;;;2.20;;
13051;SDS011;6592;47.484;9.726;2023-11-19T08:50:02;4.93;;;2.55;;
13051;SDS011;6592;47.484;9.726;2023-11-19T08:52:31;3.83;;;1.98;;
13051;SDS011;6592;47.484;9.726;2023-11-19T08:55:01;3.92;;;2.00;;
13051;SDS011;6592;47.484;9.726;2023-11-19T08:57:29;3.65;;;1.90;;
13051;SDS011;6592;47.484;9.726;2023-11-19T08:59:57;4.22;;;1.90;;
13051;SDS011;6592;47.484;9.726;2023-11-19T09:02:26;4.40;;;2.20;;
13051;SDS011;6592;47.484;9.726;2023-11-19T09:04:54;4.68;;;2.25;;
13051;SDS011;6592;47.484;9.726;2023-11-19T09:07:25;3.58;;;2.00;;
13051;SDS011;6592;47.484;9.726;2023-11-19T09:09:53;4.07;;;1.80;;
13051;SDS011;6592;47.484;9.726;2023-11-19T09:12:22;3.53;;;1.83;;
13051;SDS011;6592;47.484;9.726;2023-11-19T09:14:50;4.72;;;1.95;;
13051;SDS011;6592;47.484;9.726;2023-11-19T09:17:19;3.75;;;1.90;;
13051;SDS011;6592;47.484;9.726;2023-11-19T09:19:47;3.90;;;2.10;;
13051;SDS011;6592;47.484;9.726;2023-11-19T09:22:15;4.63;;;2.38;;
13051;SDS011;6592;47.484;9.726;2023-11-19T09:24:45;4.57;;;2.45;;
13051;SDS011;6592;47.484;9.726;2023-11-19T09:27:14;3.95;;;2.30;;
13051;SDS011;6592;47.484;9.726;2023-11-19T09:29:43;4.13;;;2.08;;
13051;SDS011;6592;47.484;9.726;2023-11-19T09:32:13;4.50;;;2.50;;
13051;SDS011;6592;47.484;9.726;2023-11-19T09:34:41;4.85;;;2.80;;
13051;SDS011;6592;47.484;9.726;2023-11-19T09:37:09;5.88;;;3.15;;
13051;SDS011;6592;47.484;9.726;2023-11-19T09:39:41;6.65;;;3.13;;
13051;SDS011;6592;47.484;9.726;2023-11-19T09:42:11;6.22;;;3.08;;
13051;SDS011;6592;47.484;9.726;2023-11-19T09:44:40;7.43;;;2.60;;
13051;SDS011;6592;47.484;9.726;2023-11-19T09:47:10;5.97;;;2.65;;
13051;SDS011;6592;47.484;9.726;2023-11-19T09:49:39;5.25;;;2.60;;
13051;SDS011;6592;47.484;9.726;2023-11-19T09:52:08;9.43;;;3.15;;
13051;SDS011;6592;47.484;9.726;2023-11-19T09:54:37;4.40;;;2.40;;
13051;SDS011;6592;47.484;9.726;2023-11-19T09:57:05;7.15;;;2.60;;
13051;SDS011;6592;47.484;9.726;2023-11-19T09:59:37;4.90;;;2.63;;
13051;SDS011;6592;47.484;9.726;2023-11-19T10:02:08;5.20;;;2.60;;
13051;SDS011;6592;47.484;9.726;2023-11-19T10:04:37;5.78;;;2.50;;
13051;SDS011;6592;47.484;9.726;2023-11-19T10:07:08;4.68;;;2.38;;
13051;SDS011;6592;47.484;9.726;2023-11-19T10:09:36;3.58;;;1.98;;
13051;SDS011;6592;47.484;9.726;2023-11-19T10:12:05;5.07;;;1.95;;
13051;SDS011;6592;47.484;9.726;2023-11-19T10:14:34;4.05;;;2.10;;
13051;SDS011;6592;47.484;9.726;2023-11-19T10:17:08;4.18;;;1.88;;
13051;SDS011;6592;47.484;9.726;2023-11-19T10:19:36;4.00;;;1.83;;
13051;SDS011;6592;47.484;9.726;2023-11-19T10:22:08;3.75;;;2.05;;
13051;SDS011;6592;47.484;9.726;2023-11-19T10:24:36;4.78;;;2.30;;
13051;SDS011;6592;47.484;9.726;2023-11-19T10:27:14;3.35;;;2.25;;
13051;SDS011;6592;47.484;9.726;2023-11-19T10:29:43;3.85;;;2.08;;
13051;SDS011;6592;47.484;9.726;2023-11-19T10:32:14;4.30;;;2.20;;
13051;SDS011;6592;47.484;9.726;2023-11-19T10:34:52;4.75;;;2.45;;
13051;SDS011;6592;47.484;9.726;2023-11-19T10:37:32;4.47;;;2.50;;
13051;SDS011;6592;47.484;9.726;2023-11-19T10:40:04;5.22;;;2.58;;
13051;SDS011;6592;47.484;9.726;2023-11-19T10:42:37;4.32;;;2.35;;
13051;SDS011;6592;47.484;9.726;2023-11-19T10:45:11;6.20;;;2.75;;
13051;SDS011;6592;47.484;9.726;2023-11-19T10:47:52;4.90;;;2.72;;
13051;SDS011;6592;47.484;9.726;2023-11-19T10:50:23;4.97;;;3.03;;
13051;SDS011;6592;47.484;9.726;2023-11-19T10:52:51;6.63;;;3.40;;
13051;SDS011;6592;47.484;9.726;2023-11-19T10:55:26;4.70;;;2.60;;
13051;SDS011;6592;47.484;9.726;2023-11-19T10:57:58;5.25;;;2.42;;
13051;SDS011;6592;47.484;9.726;2023-11-19T11:00:28;4.95;;;2.60;;
13051;SDS011;6592;47.484;9.726;2023-11-19T11:03:01;5.47;;;2.83;;
13051;SDS011;6592;47.484;9.726;2023-11-19T11:05:32;4.45;;;2.60;;
13051;SDS011;6592;47.484;9.726;2023-11-19T11:08:01;5.20;;;2.70;;
13051;SDS011;6592;47.484;9.726;2023-11-19T11:10:32;4.65;;;2.60;;
13051;SDS011;6592;47.484;9.726;2023-11-19T11:13:23;3.80;;;2.05;;
13051;SDS011;6592;47.484;9.726;2023-11-19T11:15:55;4.22;;;2.30;;
13051;SDS011;6592;47.484;9.726;2023-11-19T11:18:26;6.55;;;2.55;;
13051;SDS011;6592;47.484;9.726;2023-11-19T11:21:03;4.22;;;2.30;;
13051;SDS011;6592;47.484;9.726;2023-11-19T11:23:46;4.78;;;2.60;;
13051;SDS011;6592;47.484;9.726;2023-11-19T11:26:50;4.03;;;2.20;;
13051;SDS011;6592;47.484;9.726;2023-11-19T11:29:31;6.25;;;2.05;;
13051;SDS011;6592;47.484;9.726;2023-11-19T11:32:08;4.47;;;2.30;;
13051;SDS011;6592;47.484;9.726;2023-11-19T11:34:51;4.28;;;1.98;;
13051;SDS011;6592;47.484;9.726;2023-11-19T11:37:30;2.97;;;1.53;;
13051;SDS011;6592;47.484;9.726;2023-11-19T11:40:01;4.28;;;2.20;;
13051;SDS011;6592;47.484;9.726;2023-11-19T11:42:37;4.53;;;2.30;;
13051;SDS011;6592;47.484;9.726;2023-11-19T11:45:05;3.63;;;1.67;;
13051;SDS011;6592;47.484;9.726;2023-11-19T11:50:55;3.88;;;1.75;;
13051;SDS011;6592;47.484;9.726;2023-11-19T11:53:25;4.18;;;1.63;;
13051;SDS011;6592;47.484;9.726;2023-11-19T11:55:54;2.17;;;1.00;;
13051;SDS011;6592;47.484;9.726;2023-11-19T11:58:28;3.53;;;1.30;;
13051;SDS011;6592;47.484;9.726;2023-11-19T12:01:01;3.75;;;1.60;;
13051;SDS011;6592;47.484;9.726;2023-11-19T12:03:32;3.95;;;1.95;;
13051;SDS011;6592;47.484;9.726;2023-11-19T12:06:03;4.05;;;1.73;;
13051;SDS011;6592;47.484;9.726;2023-11-19T12:08:31;4.25;;;1.80;;
13051;SDS011;6592;47.484;9.726;2023-11-19T12:11:19;3.00;;;1.77;;
13051;SDS011;6592;47.484;9.726;2023-11-19T12:13:52;4.93;;;1.90;;
13051;SDS011;6592;47.484;9.726;2023-11-19T12:16:25;4.65;;;1.88;;
13051;SDS011;6592;47.484;9.726;2023-11-19T12:18:56;4.90;;;1.88;;
13051;SDS011;6592;47.484;9.726;2023-11-19T12:21:32;6.18;;;2.30;;
13051;SDS011;6592;47.484;9.726;2023-11-19T12:24:04;4.82;;;2.40;;
13051;SDS011;6592;47.484;9.726;2023-11-19T12:26:35;9.93;;;4.53;;
13051;SDS011;6592;47.484;9.726;2023-11-19T12:29:05;5.65;;;2.38;;
13051;SDS011;6592;47.484;9.726;2023-11-19T12:31:35;3.75;;;2.05;;
13051;SDS011;6592;47.484;9.726;2023-11-19T12:34:10;4.85;;;2.00;;
13051;SDS011;6592;47.484;9.726;2023-11-19T12:36:43;3.15;;;1.80;;
13051;SDS011;6592;47.484;9.726;2023-11-19T12:39:11;26.58;;;19.65;;
13051;SDS011;6592;47.484;9.726;2023-11-19T12:41:50;15.02;;;10.02;;
13051;SDS011;6592;47.484;9.726;2023-11-19T12:44:20;6.50;;;3.08;;
13051;SDS011;6592;47.484;9.726;2023-11-19T12:47:01;4.32;;;2.10;;
13051;SDS011;6592;47.484;9.726;2023-11-19T12:49:30;3.35;;;1.80;;
13051;SDS011;6592;47.484;9.726;2023-11-19T12:52:01;4.63;;;1.90;;
13051;SDS011;6592;47.484;9.726;2023-11-19T12:54:34;4.20;;;1.90;;
13051;SDS011;6592;47.484;9.726;2023-11-19T12:57:03;3.97;;;1.83;;
13051;SDS011;6592;47.484;9.726;2023-11-19T12:59:32;5.38;;;2.25;;
13051;SDS011;6592;47.484;9.726;2023-11-19T13:02:01;3.35;;;1.98;;
13051;SDS011;6592;47.484;9.726;2023-11-19T13:04:32;3.97;;;2.03;;
13051;SDS011;6592;47.484;9.726;2023-11-19T13:07:02;5.03;;;1.90;;
13051;SDS011;6592;47.484;9.726;2023-11-19T13:09:32;3.17;;;1.75;;
13051;SDS011;6592;47.484;9.726;2023-11-19T13:12:11;5.15;;;1.60;;
13051;SDS011;6592;47.484;9.726;2023-11-19T13:14:41;4.25;;;1.90;;
13051;SDS011;6592;47.484;9.726;2023-11-19T13:17:12;4.82;;;1.65;;
13051;SDS011;6592;47.484;9.726;2023-11-19T13:19:41;4.88;;;2.13;;
13051;SDS011;6592;47.484;9.726;2023-11-19T13:22:11;3.85;;;2.00;;
13051;SDS011;6592;47.484;9.726;2023-11-19T13:24:39;4.57;;;2.10;;
13051;SDS011;6592;47.484;9.726;2023-11-19T13:27:09;9.32;;;4.63;;
13051;SDS011;6592;47.484;9.726;2023-11-19T13:29:37;7.13;;;2.28;;
13051;SDS011;6592;47.484;9.726;2023-11-19T13:32:06;4.75;;;2.20;;
13051;SDS011;6592;47.484;9.726;2023-11-19T13:34:34;3.33;;;1.80;;
13051;SDS011;6592;47.484;9.726;2023-11-19T13:37:03;4.20;;;1.90;;
13051;SDS011;6592;47.484;9.726;2023-11-19T13:39:33;5.35;;;2.45;;
13051;SDS011;6592;47.484;9.726;2023-11-19T13:42:01;6.32;;;3.05;;
13051;SDS011;6592;47.484;9.726;2023-11-19T13:44:33;5.85;;;3.40;;
13051;SDS011;6592;47.484;9.726;2023-11-19T13:47:02;5.68;;;3.28;;
13051;SDS011;6592;47.484;9.726;2023-11-19T13:49:30;7.82;;;4.07;;
13051;SDS011;6592;47.484;9.726;2023-11-19T13:52:00;7.03;;;3.53;;
13051;SDS011;6592;47.484;9.726;2023-11-19T13:54:28;5.38;;;3.00;;
13051;SDS011;6592;47.484;9.726;2023-11-19T13:56:58;4.82;;;2.72;;
13051;SDS011;6592;47.484;9.726;2023-11-19T13:59:27;5.15;;;2.40;;
13051;SDS011;6592;47.484;9.726;2023-11-19T14:01:55;8.02;;;2.67;;
13051;SDS011;6592;47.484;9.726;2023-11-19T14:04:23;4.32;;;2.17;;
13051;SDS011;6592;47.484;9.726;2023-11-19T14:06:52;5.95;;;2.22;;
13051;SDS011;6592;47.484;9.726;2023-11-19T14:09:21;4.50;;;2.22;;
13051;SDS011;6592;47.484;9.726;2023-11-19T14:11:50;6.20;;;2.60;;
13051;SDS011;6592;47.484;9.726;2023-11-19T14:14:19;6.20;;;2.97;;
13051;SDS011;6592;47.484;9.726;2023-11-19T14:16:48;6.53;;;3.10;;
13051;SDS011;6592;47.484;9.726;2023-11-19T14:19:16;5.28;;;3.15;;
13051;SDS011;6592;47.484;9.726;2023-11-19T14:21:45;7.45;;;4.20;;
13051;SDS011;6592;47.484;9.726;2023-11-19T14:24:14;9.43;;;5.00;;
13051;SDS011;6592;47.484;9.726;2023-11-19T14:26:42;9.82;;;4.40;;
13051;SDS011;6592;47.484;9.726;2023-11-19T14:29:13;10.13;;;4.55;;
13051;SDS011;6592;47.484;9.726;2023-11-19T14:31:43;9.50;;;5.18;;
13051;SDS011;6592;47.484;9.726;2023-11-19T14:34:11;6.80;;;3.83;;
13051;SDS011;6592;47.484;9.726;2023-11-19T14:36:40;7.65;;;4.05;;
13051;SDS011;6592;47.484;9.726;2023-11-19T14:39:08;7.30;;;4.05;;
13051;SDS011;6592;47.484;9.726;2023-11-19T14:41:36;6.15;;;3.67;;
13051;SDS011;6592;47.484;9.726;2023-11-19T14:44:05;6.30;;;3.20;;
13051;SDS011;6592;47.484;9.726;2023-11-19T14:46:35;6.85;;;3.22;;
13051;SDS011;6592;47.484;9.726;2023-11-19T14:49:05;7.85;;;3.63;;
13051;SDS011;6592;47.484;9.726;2023-11-19T14:51:35;5.60;;;2.83;;
13051;SDS011;6592;47.484;9.726;2023-11-19T14:54:04;8.55;;;3.10;;
13051;SDS011;6592;47.484;9.726;2023-11-19T14:56:33;7.57;;;3.03;;
13051;SDS011;6592;47.484;9.726;2023-11-19T14:59:01;9.25;;;3.65;;
13051;SDS011;6592;47.484;9.726;2023-11-19T15:01:30;9.30;;;3.45;;
13051;SDS011;6592;47.484;9.726;2023-11-19T15:03:58;7.95;;;3.67;;
13051;SDS011;6592;47.484;9.726;2023-11-19T15:06:32;8.10;;;3.75;;
13051;SDS011;6592;47.484;9.726;2023-11-19T15:09:01;6.75;;;3.67;;
13051;SDS011;6592;47.484;9.726;2023-11-19T15:11:29;10.90;;;4.07;;
13051;SDS011;6592;47.484;9.726;2023-11-19T15:13:57;7.32;;;4.22;;
13051;SDS011;6592;47.484;9.726;2023-11-19T15:16:26;8.63;;;4.75;;
13051;SDS011;6592;47.484;9.726;2023-11-19T15:18:59;11.43;;;5.50;;
13051;SDS011;6592;47.484;9.726;2023-11-19T15:21:29;9.70;;;5.25;;
13051;SDS011;6592;47.484;9.726;2023-11-19T15:24:00;9.15;;;4.68;;